createdAt,value
2018-07-24T00:01:01.170Z,7.07
2018-07-24T00:03:30.432Z,7.20
2018-07-24T00:06:01.175Z,6.53
2018-07-24T00:08:30.383Z,7.10
2018-07-24T00:10:59.614Z,7.53
2018-07-24T00:13:28.776Z,7.10
2018-07-24T00:16:02.776Z,6.80
2018-07-24T00:18:31.975Z,7.20
2018-07-24T00:21:01.181Z,7.30
2018-07-24T00:23:30.391Z,7.67
2018-07-24T00:25:59.607Z,7.40
2018-07-24T00:28:28.811Z,7.27
2018-07-24T00:30:58.015Z,7.27
2018-07-24T00:33:27.319Z,7.73
2018-07-24T00:35:56.507Z,6.57
2018-07-24T00:38:25.680Z,7.67
2018-07-24T00:40:54.944Z,7.53
2018-07-24T00:43:24.116Z,8.20
2018-07-24T00:45:53.305Z,7.03
2018-07-24T00:48:22.484Z,8.07
2018-07-24T00:50:51.679Z,7.40
2018-07-24T00:53:21.203Z,7.17
2018-07-24T00:55:50.396Z,6.80
2018-07-24T00:58:19.624Z,6.60
2018-07-24T01:00:48.879Z,7.30
2018-07-24T01:03:18.158Z,6.73
2018-07-24T01:05:47.356Z,7.93
2018-07-24T01:08:16.559Z,8.00
2018-07-24T01:10:45.780Z,7.90
2018-07-24T01:13:14.951Z,7.53
2018-07-24T01:15:44.169Z,7.20
2018-07-24T01:18:13.361Z,7.13
2018-07-24T01:20:42.595Z,7.20
2018-07-24T01:23:11.824Z,7.80
2018-07-24T01:25:41.034Z,8.23
2018-07-24T01:28:10.248Z,8.30
2018-07-24T01:30:39.516Z,8.07
2018-07-24T01:33:08.699Z,7.80
2018-07-24T01:35:37.976Z,8.40
2018-07-24T01:38:07.266Z,7.80
2018-07-24T01:40:36.484Z,8.10
2018-07-24T01:43:05.719Z,7.50
2018-07-24T01:45:34.938Z,7.47
2018-07-24T01:48:04.132Z,7.20
2018-07-24T01:50:33.328Z,6.77
2018-07-24T01:53:02.539Z,7.77
2018-07-24T01:55:31.877Z,7.53
2018-07-24T01:58:01.147Z,7.40
2018-07-24T02:00:30.369Z,8.00
2018-07-24T02:02:59.553Z,8.13
2018-07-24T02:05:28.853Z,8.60
2018-07-24T02:07:58.076Z,8.77
2018-07-24T02:10:27.291Z,8.17
2018-07-24T02:12:56.490Z,7.93
2018-07-24T02:15:25.706Z,8.83
2018-07-24T02:17:55.642Z,8.87
2018-07-24T02:20:24.829Z,8.43
2018-07-24T02:22:59.372Z,7.60
2018-07-24T02:25:28.557Z,8.40
2018-07-24T02:27:57.476Z,8.70
2018-07-24T02:30:27.213Z,8.93
2018-07-24T02:32:56.386Z,8.67
2018-07-24T02:35:25.617Z,7.93
2018-07-24T02:37:54.816Z,8.50
2018-07-24T02:40:23.993Z,9.10
2018-07-24T02:42:53.273Z,8.87
2018-07-24T02:45:22.470Z,9.07
2018-07-24T02:47:51.658Z,8.43
2018-07-24T02:50:20.883Z,9.57
2018-07-24T02:52:50.058Z,10.00
2018-07-24T02:55:19.301Z,8.50
2018-07-24T02:57:48.501Z,9.73
2018-07-24T03:00:17.748Z,8.90
2018-07-24T03:02:46.976Z,9.30
2018-07-24T03:05:16.144Z,8.47
2018-07-24T03:07:45.372Z,10.13
2018-07-24T03:10:14.546Z,9.40
2018-07-24T03:12:43.757Z,10.83
2018-07-24T03:15:12.942Z,9.23
2018-07-24T03:17:42.133Z,9.50
2018-07-24T03:20:11.456Z,9.23
2018-07-24T03:22:40.710Z,10.67
2018-07-24T03:25:09.917Z,10.07
2018-07-24T03:27:39.132Z,10.00
2018-07-24T03:30:08.002Z,9.90
2018-07-24T03:32:37.208Z,10.00
2018-07-24T03:35:06.461Z,9.17
2018-07-24T03:37:35.683Z,10.33
2018-07-24T03:40:04.901Z,9.23
2018-07-24T03:42:34.130Z,10.80
2018-07-24T03:45:03.329Z,10.43
2018-07-24T03:47:32.842Z,10.17
2018-07-24T03:50:02.036Z,10.70
2018-07-24T14:32:19.454Z,4.20
2018-07-24T14:34:48.415Z,3.80
2018-07-24T14:37:17.375Z,3.90
2018-07-24T14:39:46.351Z,3.90
2018-07-24T14:42:15.304Z,3.63
2018-07-24T14:44:44.277Z,3.00
2018-07-24T14:47:13.325Z,3.27
2018-07-24T14:49:42.289Z,3.57
2018-07-24T14:52:11.245Z,3.73
2018-07-24T14:54:40.249Z,3.37
2018-07-24T14:57:09.216Z,3.30
2018-07-24T14:59:38.334Z,3.40
2018-07-24T15:02:07.768Z,3.13
2018-07-24T15:04:36.875Z,3.00
2018-07-24T15:07:05.811Z,2.97
2018-07-24T15:09:34.903Z,2.97
2018-07-24T15:12:04.305Z,2.97
2018-07-24T15:14:33.279Z,2.43
2018-07-24T15:17:02.441Z,2.43
2018-07-24T15:19:31.438Z,2.37
2018-07-24T15:22:00.467Z,2.27
2018-07-24T15:24:29.531Z,2.70
2018-07-24T15:26:58.492Z,2.40
2018-07-24T15:29:27.452Z,2.10
2018-07-24T15:31:56.394Z,2.13
2018-07-24T15:34:25.435Z,2.60
2018-07-24T15:36:54.520Z,2.43
2018-07-24T15:39:23.950Z,2.77
2018-07-24T15:41:52.926Z,2.53
2018-07-24T15:44:21.917Z,3.13
2018-07-24T15:46:50.899Z,2.67
2018-07-24T15:49:19.854Z,2.47
2018-07-24T15:51:48.860Z,3.20
2018-07-24T15:54:17.853Z,2.50
2018-07-24T15:56:46.848Z,2.87
2018-07-24T15:59:15.912Z,3.47
2018-07-24T16:01:44.918Z,3.30
2018-07-24T16:04:13.898Z,2.70
2018-07-24T16:06:42.866Z,3.17
2018-07-24T16:09:13.141Z,2.93
2018-07-24T16:11:43.226Z,2.50
2018-07-24T16:14:12.253Z,3.00
2018-07-24T16:16:41.251Z,3.10
2018-07-24T16:19:10.271Z,2.90
2018-07-24T16:21:39.234Z,3.00
2018-07-24T16:24:08.206Z,3.10
2018-07-24T16:26:37.187Z,2.90
2018-07-24T16:29:06.237Z,3.30
2018-07-24T16:31:36.329Z,3.10
2018-07-24T16:34:06.663Z,3.13
2018-07-24T16:36:35.621Z,3.00
2018-07-24T16:39:07.843Z,3.13
2018-07-24T16:41:36.851Z,3.30
2018-07-24T16:44:10.841Z,3.43
2018-07-24T16:46:39.799Z,3.10
2018-07-24T16:49:08.508Z,3.47
2018-07-24T16:51:37.081Z,3.20
2018-07-24T16:54:05.653Z,3.30
2018-07-24T16:56:34.268Z,3.43
2018-07-24T16:59:03.599Z,3.13
2018-07-24T17:01:32.207Z,3.50
2018-07-24T17:04:00.855Z,3.40
2018-07-24T17:06:29.576Z,3.30
2018-07-24T17:08:58.233Z,3.37
2018-07-24T17:11:26.839Z,3.70
2018-07-24T17:13:55.535Z,3.53
2018-07-24T17:16:24.086Z,3.57
2018-07-24T17:18:52.769Z,3.90
2018-07-24T17:21:21.897Z,3.70
2018-07-24T17:23:50.663Z,3.93
2018-07-24T17:26:19.371Z,3.40
2018-07-24T17:28:47.919Z,3.63
2018-07-24T17:31:16.542Z,3.53
2018-07-24T17:33:45.098Z,3.50
2018-07-24T17:36:13.798Z,3.40
2018-07-24T17:38:42.377Z,3.40
2018-07-24T17:41:10.973Z,3.50
2018-07-24T17:43:39.542Z,3.40
2018-07-24T17:46:08.136Z,3.00
2018-07-24T17:48:36.744Z,3.53
2018-07-24T17:51:05.351Z,3.00
2018-07-24T17:53:34.080Z,4.00
2018-07-24T17:56:02.666Z,3.23
2018-07-24T17:58:31.246Z,3.57
2018-07-24T18:00:59.911Z,3.87
2018-07-24T18:03:28.624Z,3.20
2018-07-24T18:05:57.421Z,3.10
2018-07-24T18:08:25.997Z,3.30
2018-07-24T18:10:54.684Z,3.27
2018-07-24T18:13:23.299Z,3.53
2018-07-24T18:15:51.916Z,3.30
2018-07-24T18:18:20.636Z,3.30
2018-07-24T18:20:49.226Z,3.20
2018-07-24T18:23:17.999Z,3.57
2018-07-24T18:25:46.612Z,3.50
2018-07-24T18:28:15.229Z,3.53
2018-07-24T18:30:43.851Z,3.40
2018-07-24T18:33:12.452Z,3.43
2018-07-24T18:35:41.191Z,3.10
2018-07-24T18:38:09.783Z,3.20
2018-07-24T18:40:38.451Z,3.37
2018-07-24T18:43:07.053Z,3.30
2018-07-24T18:45:35.834Z,3.50
2018-07-24T18:48:04.845Z,3.50
2018-07-24T18:50:33.520Z,3.60
2018-07-24T18:53:02.096Z,3.13
2018-07-24T18:55:30.710Z,3.77
2018-07-24T18:57:59.325Z,3.27
2018-07-24T19:00:27.940Z,3.90
2018-07-24T19:02:56.645Z,3.00
2018-07-24T19:05:25.716Z,3.77
2018-07-24T19:07:54.381Z,4.13
2018-07-24T19:10:22.963Z,3.83
2018-07-24T19:12:51.575Z,3.23
2018-07-24T19:15:20.159Z,3.20
2018-07-24T19:17:48.854Z,3.60
2018-07-24T19:20:17.493Z,4.40
2018-07-24T19:22:46.103Z,3.40
2018-07-24T19:25:14.779Z,4.13
2018-07-24T19:27:43.483Z,3.67
2018-07-24T19:30:12.354Z,3.57
2018-07-24T19:32:41.627Z,4.67
2018-07-24T19:35:10.655Z,3.43
2018-07-24T19:37:39.762Z,4.43
2018-07-24T19:40:08.448Z,3.70
2018-07-24T19:42:37.055Z,3.93
2018-07-24T19:45:05.753Z,3.80
2018-07-24T19:47:34.351Z,3.67
2018-07-24T19:50:02.989Z,3.40
2018-07-24T19:52:31.610Z,3.87
2018-07-24T19:55:00.268Z,4.00
2018-07-24T19:57:29.171Z,3.40
2018-07-24T19:59:58.167Z,5.30
2018-07-24T20:02:27.753Z,4.00
2018-07-24T20:04:56.791Z,4.50
2018-07-24T20:07:25.804Z,3.97
2018-07-24T20:09:54.789Z,4.00
2018-07-24T20:12:23.817Z,3.97
2018-07-24T20:14:52.503Z,4.37
2018-07-24T20:17:21.433Z,3.90
2018-07-24T20:19:50.407Z,3.87
2018-07-24T20:22:19.398Z,4.47
2018-07-24T20:24:48.357Z,5.10
2018-07-24T20:27:17.382Z,3.73
2018-07-24T20:29:46.370Z,3.87
2018-07-24T20:32:16.050Z,4.50
2018-07-24T20:34:45.452Z,4.67
2018-07-24T20:37:15.295Z,4.17
2018-07-24T20:39:46.221Z,4.80
2018-07-24T20:42:16.055Z,4.80
2018-07-24T20:44:45.028Z,4.50
2018-07-24T20:47:14.344Z,4.13
2018-07-24T20:49:43.299Z,4.17
2018-07-24T20:52:12.659Z,4.27
2018-07-24T20:54:41.635Z,5.20
2018-07-24T20:57:10.755Z,5.20
2018-07-24T20:59:39.699Z,4.27
2018-07-24T21:02:11.610Z,4.43
2018-07-24T21:04:40.619Z,4.43
2018-07-24T21:07:09.624Z,3.90
2018-07-24T21:09:38.710Z,4.30
2018-07-24T21:12:07.627Z,4.83
2018-07-24T21:14:36.578Z,3.80
2018-07-24T21:17:05.654Z,4.03
2018-07-24T21:19:34.641Z,4.17
2018-07-24T21:22:03.698Z,4.80
2018-07-24T21:24:32.705Z,4.30
2018-07-24T21:27:01.680Z,3.70
2018-07-24T21:29:30.693Z,3.90
2018-07-24T21:31:59.676Z,4.20
2018-07-24T21:34:28.728Z,3.80
2018-07-24T21:36:57.770Z,4.50
2018-07-24T21:39:27.691Z,4.80
2018-07-24T21:41:56.732Z,4.30
2018-07-24T21:44:25.752Z,4.90
2018-07-24T21:46:54.770Z,4.80
2018-07-24T21:49:23.990Z,4.33
2018-07-24T21:51:53.041Z,4.67
2018-07-24T21:54:24.240Z,4.00
2018-07-24T21:56:53.286Z,4.47
2018-07-24T21:59:22.298Z,4.43
2018-07-24T22:01:51.258Z,5.73
2018-07-24T22:04:20.286Z,4.63
2018-07-24T22:06:49.253Z,3.90
2018-07-24T22:09:18.274Z,3.80
2018-07-24T22:11:47.267Z,4.70
2018-07-24T22:14:16.272Z,4.03
2018-07-24T22:16:45.222Z,4.77
2018-07-24T22:19:14.301Z,4.27
2018-07-24T22:21:43.575Z,4.53
2018-07-24T22:24:12.558Z,4.40
2018-07-24T22:26:41.534Z,4.47
2018-07-24T22:29:10.597Z,4.57
2018-07-24T22:31:39.635Z,4.60
2018-07-24T22:34:08.704Z,3.80
2018-07-24T22:36:37.709Z,4.07
2018-07-24T22:39:08.893Z,4.50
2018-07-24T22:41:37.876Z,4.27
2018-07-24T22:44:07.441Z,4.10
2018-07-24T22:46:36.677Z,4.50
2018-07-24T22:49:06.055Z,4.57
2018-07-24T22:51:35.007Z,4.37
2018-07-24T22:54:04.887Z,4.70
2018-07-24T22:56:33.832Z,4.40
2018-07-24T22:59:06.826Z,5.10
2018-07-24T23:01:35.899Z,4.10
2018-07-24T23:04:04.986Z,4.30
2018-07-24T23:06:33.957Z,5.40
2018-07-24T23:09:10.242Z,4.63
2018-07-24T23:11:39.673Z,5.00
2018-07-24T23:14:08.815Z,4.10
2018-07-24T23:16:37.792Z,4.50
2018-07-24T23:19:06.834Z,4.23
2018-07-24T23:21:35.802Z,4.83
2018-07-24T23:24:05.720Z,5.10
2018-07-24T23:26:34.691Z,5.53
2018-07-24T23:29:03.881Z,5.53
2018-07-24T23:31:32.865Z,4.87
2018-07-24T23:34:01.903Z,5.07
2018-07-24T23:36:30.873Z,4.20
2018-07-24T23:38:59.859Z,4.73
2018-07-24T23:41:28.917Z,5.43
2018-07-24T23:43:57.919Z,4.53
2018-07-24T23:46:26.898Z,5.00
2018-07-24T23:48:55.891Z,5.27
2018-07-24T23:51:25.460Z,5.10
2018-07-24T23:53:54.445Z,4.77
2018-07-24T23:56:23.405Z,5.37
2018-07-24T23:58:52.530Z,5.23
